Observation data for Morton on 07/10/2020      Previous  Date  Next       Current Mesonet Observations  Soil Data  Daily Summary Page  Observations in Plain Language
KMNS 100500Z 16014G21KT 31/14 A2996 RMK A01 T03050135  RH  037%=      5-min Rain = 0
KMNS 100505Z 16014G20KT 30/14 A2996 RMK A01 T03040136  RH  037%=      5-min Rain = 0
KMNS 100510Z 16014G20KT 30/14 A2996 RMK A01 T03030135  RH  037%=      5-min Rain = 0
KMNS 100515Z 16013G19KT 30/14 A2996 RMK A01 T03020135  RH  037%=      5-min Rain = 0
KMNS 100520Z 16015G20KT 30/13 A2996 RMK A01 T03020132  RH  037%=      5-min Rain = 0
KMNS 100525Z 16014G19KT 30/13 A2996 RMK A01 T03030131  RH  036%=      5-min Rain = 0
KMNS 100530Z 17014G19KT 30/13 A2996 RMK A01 T03020131  RH  036%=      5-min Rain = 0
KMNS 100535Z 17015KT 30/13 A2996 RMK A01 T03020130  RH  036%=      5-min Rain = 0
KMNS 100540Z 16015G20KT 30/13 A2996 RMK A01 T03020130  RH  036%=      5-min Rain = 0
KMNS 100545Z 16015KT 30/13 A2996 RMK A01 T03010129  RH  036%=      5-min Rain = 0
KMNS 100550Z 17014G19KT 30/13 A2997 RMK A01 T03010128  RH  036%=      5-min Rain = 0
KMNS 100555Z 17015KT 30/13 A2997 RMK A01 T03000127  RH  036%=      5-min Rain = 0
KMNS 100600Z 17014G19KT 30/13 A2997 RMK A01 T02990126  RH  036%=      5-min Rain = 0
KMNS 100605Z 17014G19KT 30/13 A2997 RMK A01 T02990125  RH  036%=      5-min Rain = 0
KMNS 100610Z 17014G20KT 30/12 A2997 RMK A01 T02980124  RH  036%=      5-min Rain = 0
KMNS 100615Z 17016G23KT 30/12 A2997 RMK A01 T02980123  RH  035%=      5-min Rain = 0
KMNS 100620Z 17016G21KT 30/12 A2997 RMK A01 T02980122  RH  035%=      5-min Rain = 0
KMNS 100625Z 17017G22KT 30/12 A2997 RMK A01 T02970122  RH  035%=      5-min Rain = 0
KMNS 100630Z 18015G22KT 30/12 A2997 RMK A01 T02950121  RH  036%=      5-min Rain = 0
KMNS 100635Z 18015G20KT 29/12 A2997 RMK A01 T02940121  RH  036%=      5-min Rain = 0
KMNS 100640Z 18015KT 29/12 A2998 RMK A01 T02940120  RH  035%=      5-min Rain = 0
KMNS 100645Z 18014G19KT 29/12 A2998 RMK A01 T02920121  RH  036%=      5-min Rain = 0
KMNS 100650Z 18015G21KT 29/12 A2997 RMK A01 T02920121  RH  036%=      5-min Rain = 0
KMNS 100655Z 19015KT 29/12 A2998 RMK A01 T02910121  RH  036%=      5-min Rain = 0
KMNS 100700Z 20013KT 29/12 A2998 RMK A01 T02880121  RH  037%=      5-min Rain = 0
KMNS 100705Z 20013KT 29/12 A2998 RMK A01 T02870120  RH  037%=      5-min Rain = 0
KMNS 100710Z 20014KT 29/12 A2998 RMK A01 T02870120  RH  037%=      5-min Rain = 0
KMNS 100715Z 20014KT 29/12 A2998 RMK A01 T02870121  RH  037%=      5-min Rain = 0
KMNS 100720Z 19013G18KT 29/12 A2999 RMK A01 T02870123  RH  038%=      5-min Rain = 0
KMNS 100725Z 15012G17KT 29/12 A30 RMK A01 T02870124  RH  038%=      5-min Rain = 0
KMNS 100730Z 14012KT 29/13 A3001 RMK A01 T02860125  RH  039%=      5-min Rain = 0
KMNS 100735Z 18012KT 28/13 A30 RMK A01 T02830126  RH  039%=      5-min Rain = 0
KMNS 100740Z 20015KT 28/13 A2999 RMK A01 T02840127  RH  040%=      5-min Rain = 0
KMNS 100745Z 20014KT 28/13 A2999 RMK A01 T02840129  RH  040%=      5-min Rain = 0
KMNS 100750Z 19013KT 28/13 A30 RMK A01 T02830130  RH  040%=      5-min Rain = 0
KMNS 100755Z 20013KT 28/13 A30 RMK A01 T02820133  RH  041%=      5-min Rain = 0
KMNS 100800Z 20013KT 28/14 A30 RMK A01 T02820136  RH  042%=      5-min Rain = 0
KMNS 100805Z 20014G19KT 28/14 A30 RMK A01 T02820139  RH  043%=      5-min Rain = 0
KMNS 100810Z 20015G21KT 28/14 A2999 RMK A01 T02820141  RH  044%=      5-min Rain = 0
KMNS 100815Z 20015KT 28/14 A2999 RMK A01 T02820143  RH  045%=      5-min Rain = 0
KMNS 100820Z 20014G19KT 28/15 A30 RMK A01 T02810145  RH  045%=      5-min Rain = 0
KMNS 100825Z 20014KT 28/15 A30 RMK A01 T02800146  RH  046%=      5-min Rain = 0
KMNS 100830Z 20013G18KT 28/15 A30 RMK A01 T02790146  RH  046%=      5-min Rain = 0
KMNS 100835Z 20016KT 28/15 A2999 RMK A01 T02810147  RH  046%=      5-min Rain = 0
KMNS 100840Z 20017G24KT 28/15 A2999 RMK A01 T02820148  RH  046%=      5-min Rain = 0
KMNS 100845Z 20017KT 28/15 A30 RMK A01 T02820148  RH  046%=      5-min Rain = 0
KMNS 100850Z 20017KT 28/15 A2999 RMK A01 T02810148  RH  046%=      5-min Rain = 0
KMNS 100855Z 20016G21KT 28/15 A2999 RMK A01 T02790149  RH  047%=      5-min Rain = 0
KMNS 100900Z 20015G21KT 28/15 A2999 RMK A01 T02780149  RH  047%=      5-min Rain = 0
KMNS 100905Z 20015KT 28/15 A2999 RMK A01 T02770149  RH  048%=      5-min Rain = 0
KMNS 100910Z 20015KT 28/15 A30 RMK A01 T02770149  RH  048%=      5-min Rain = 0
KMNS 100915Z 20014KT 28/15 A2999 RMK A01 T02750149  RH  048%=      5-min Rain = 0
KMNS 100920Z 20016KT 28/15 A2999 RMK A01 T02750149  RH  048%=      5-min Rain = 0
KMNS 100925Z 20014KT 27/15 A2999 RMK A01 T02730149  RH  049%=      5-min Rain = 0
KMNS 100930Z 19014KT 27/15 A30 RMK A01 T02710149  RH  049%=      5-min Rain = 0
KMNS 100935Z 18012KT 27/15 A30 RMK A01 T02700150  RH  050%=      5-min Rain = 0
KMNS 100940Z 18011KT 27/15 A30 RMK A01 T02680150  RH  050%=      5-min Rain = 0
KMNS 100945Z 18012KT 27/15 A30 RMK A01 T02680150  RH  051%=      5-min Rain = 0
KMNS 100950Z 18011KT 27/15 A30 RMK A01 T02660150  RH  051%=      5-min Rain = 0
KMNS 100955Z 18009KT 27/15 A3001 RMK A01 T02650150  RH  051%=      5-min Rain = 0
KMNS 101000Z 18009KT 26/15 A3001 RMK A01 T02640150  RH  052%=      5-min Rain = 0
KMNS 101005Z 17008KT 26/15 A3001 RMK A01 T02630150  RH  052%=      5-min Rain = 0
KMNS 101010Z 17008KT 26/15 A3002 RMK A01 T02620150  RH  053%=      5-min Rain = 0
KMNS 101015Z 17008KT 26/15 A3002 RMK A01 T02600150  RH  053%=      5-min Rain = 0
KMNS 101020Z 18009KT 26/15 A3001 RMK A01 T02600150  RH  053%=      5-min Rain = 0
KMNS 101025Z 20007KT 26/15 A3002 RMK A01 T02580151  RH  054%=      5-min Rain = 0
KMNS 101030Z 21005KT 26/15 A3003 RMK A01 T02560151  RH  055%=      5-min Rain = 0
KMNS 101035Z 23005KT 26/15 A3003 RMK A01 T02550151  RH  055%=      5-min Rain = 0
KMNS 101040Z 24005KT 25/15 A3003 RMK A01 T02540151  RH  055%=      5-min Rain = 0
KMNS 101045Z 23006KT 25/15 A3003 RMK A01 T02530151  RH  056%=      5-min Rain = 0
KMNS 101050Z 21007KT 25/15 A3003 RMK A01 T02510151  RH  056%=      5-min Rain = 0
KMNS 101055Z 19007KT 25/15 A3003 RMK A01 T02500151  RH  057%=      5-min Rain = 0
KMNS 101100Z 18007KT 25/15 A3003 RMK A01 T02480151  RH  057%=      5-min Rain = 0
KMNS 101105Z 19007KT 25/15 A3003 RMK A01 T02460151  RH  058%=      5-min Rain = 0
KMNS 101110Z 19008KT 24/15 A3003 RMK A01 T02440151  RH  059%=      5-min Rain = 0
KMNS 101115Z 18007KT 24/15 A3003 RMK A01 T02430151  RH  059%=      5-min Rain = 0
KMNS 101120Z 19008KT 24/15 A3003 RMK A01 T02440152  RH  059%=      5-min Rain = 0
KMNS 101125Z 20008KT 24/15 A3003 RMK A01 T02440152  RH  059%=      5-min Rain = 0
KMNS 101130Z 19008KT 24/15 A3003 RMK A01 T02410152  RH  060%=      5-min Rain = 0
KMNS 101135Z 18007KT 24/15 A3003 RMK A01 T02410152  RH  060%=      5-min Rain = 0
KMNS 101140Z 18007KT 25/15 A3004 RMK A01 T02450153  RH  059%=      5-min Rain = 0
KMNS 101145Z 19006KT 25/15 A3004 RMK A01 T02450153  RH  059%=      5-min Rain = 0
KMNS 101150Z 20006KT 24/15 A3004 RMK A01 T02440153  RH  059%=      5-min Rain = 0
KMNS 101155Z 20006KT 24/15 A3004 RMK A01 T02440153  RH  060%=      5-min Rain = 0
KMNS 101200Z 20006KT 24/15 A3004 RMK A01 T02440153  RH  060%=      5-min Rain = 0
KMNS 101205Z 20007KT 24/15 A3005 RMK A01 T02440154  RH  060%=      5-min Rain = 0
KMNS 101210Z 20007KT 25/15 A3005 RMK A01 T02460154  RH  059%=      5-min Rain = 0
KMNS 101215Z 20007KT 25/15 A3005 RMK A01 T02460154  RH  059%=      5-min Rain = 0
KMNS 101220Z 20008KT 25/15 A3005 RMK A01 T02450154  RH  060%=      5-min Rain = 0
KMNS 101225Z 19008KT 25/16 A3005 RMK A01 T02460155  RH  060%=      5-min Rain = 0
KMNS 101230Z 20009KT 25/16 A3005 RMK A01 T02450155  RH  060%=      5-min Rain = 0
KMNS 101235Z 20009KT 25/16 A3005 RMK A01 T02460156  RH  060%=      5-min Rain = 0
KMNS 101240Z 21010KT 25/16 A3005 RMK A01 T02470156  RH  060%=      5-min Rain = 0
KMNS 101245Z 21009KT 25/16 A3006 RMK A01 T02490156  RH  059%=      5-min Rain = 0
KMNS 101250Z 22008KT 25/16 A3006 RMK A01 T02500156  RH  059%=      5-min Rain = 0
KMNS 101255Z 21007KT 25/16 A3006 RMK A01 T02510157  RH  058%=      5-min Rain = 0
KMNS 101300Z 20006KT 25/16 A3007 RMK A01 T02520157  RH  058%=      5-min Rain = 0
KMNS 101305Z 19006KT 25/16 A3007 RMK A01 T02530157  RH  058%=      5-min Rain = 0
KMNS 101310Z 16005KT 25/16 A3007 RMK A01 T02540158  RH  058%=      5-min Rain = 0
KMNS 101315Z 16005KT 25/16 A3007 RMK A01 T02530158  RH  058%=      5-min Rain = 0
KMNS 101320Z 18005KT 25/16 A3007 RMK A01 T02540159  RH  058%=      5-min Rain = 0
KMNS 101325Z 19007KT 25/16 A3007 RMK A01 T02530158  RH  058%=      5-min Rain = 0
KMNS 101330Z 20008KT 26/16 A3007 RMK A01 T02600159  RH  057%=      5-min Rain = 0
KMNS 101335Z 21006KT 27/16 A3008 RMK A01 T02680161  RH  054%=      5-min Rain = 0
KMNS 101340Z 23007KT 28/16 A3008 RMK A01 T02760161  RH  052%=      5-min Rain = 0
KMNS 101345Z 22009KT 28/16 A3008 RMK A01 T02820159  RH  049%=      5-min Rain = 0
KMNS 101350Z 20011KT 29/16 A3007 RMK A01 T02850156  RH  048%=      5-min Rain = 0
KMNS 101355Z 20011KT 29/16 A3007 RMK A01 T02870156  RH  047%=      5-min Rain = 0
KMNS 101400Z 20011KT 29/16 A3008 RMK A01 T02910156  RH  046%=      5-min Rain = 0
KMNS 101405Z 20013KT 29/15 A3008 RMK A01 T02910154  RH  045%=      5-min Rain = 0
KMNS 101410Z 20012KT 30/15 A3008 RMK A01 T02960153  RH  044%=      5-min Rain = 0
KMNS 101415Z 21012KT 30/15 A3008 RMK A01 T02970153  RH  044%=      5-min Rain = 0
KMNS 101420Z 22011KT 30/15 A3008 RMK A01 T02990153  RH  043%=      5-min Rain = 0
KMNS 101425Z 23014KT 31/15 A3008 RMK A01 T03050148  RH  040%=      5-min Rain = 0
KMNS 101430Z 22012KT 30/15 A3008 RMK A01 T03030150  RH  041%=      5-min Rain = 0
KMNS 101435Z 23012KT 31/15 A3008 RMK A01 T03060150  RH  041%=      5-min Rain = 0
KMNS 101440Z 23010KT 31/15 A3009 RMK A01 T03070149  RH  040%=      5-min Rain = 0
KMNS 101445Z 23010G15KT 31/15 A3009 RMK A01 T03110147  RH  039%=      5-min Rain = 0
KMNS 101450Z 23012KT 31/14 A3008 RMK A01 T03140142  RH  037%=      5-min Rain = 0
KMNS 101455Z 23011KT 32/14 A3008 RMK A01 T03170144  RH  036%=      5-min Rain = 0
KMNS 101500Z 23010KT 32/14 A3008 RMK A01 T03200143  RH  036%=      5-min Rain = 0
KMNS 101505Z 22009KT 32/14 A3008 RMK A01 T03170142  RH  036%=      5-min Rain = 0
KMNS 101510Z 23010KT 32/14 A3008 RMK A01 T03210140  RH  035%=      5-min Rain = 0
KMNS 101515Z 24009KT 33/13 A3008 RMK A01 T03280133  RH  032%=      5-min Rain = 0
KMNS 101520Z 23010KT 33/13 A3008 RMK A01 T03300132  RH  031%=      5-min Rain = 0
KMNS 101525Z 24010KT 33/13 A3008 RMK A01 T03310132  RH  031%=      5-min Rain = 0
KMNS 101530Z 23010KT 34/13 A3008 RMK A01 T03360132  RH  030%=      5-min Rain = 0
KMNS 101535Z 24010KT 34/13 A3008 RMK A01 T03370129  RH  030%=      5-min Rain = 0
KMNS 101540Z 24012KT 34/12 A3008 RMK A01 T03400124  RH  028%=      5-min Rain = 0
KMNS 101545Z 23010KT 34/13 A3008 RMK A01 T03440125  RH  028%=      5-min Rain = 0
KMNS 101550Z 23010KT 34/12 A3008 RMK A01 T03440123  RH  027%=      5-min Rain = 0
KMNS 101555Z 22011KT 35/11 A3008 RMK A01 T03510113  RH  025%=      5-min Rain = 0
KMNS 101600Z 23013KT 36/11 A3007 RMK A01 T03550105  RH  023%=      5-min Rain = 0
KMNS 101605Z 22011KT 36/10 A3007 RMK A01 T03590095  RH  021%=      5-min Rain = 0
KMNS 101610Z 24012KT 37/08 A3007 RMK A01 T03660083  RH  018%=      5-min Rain = 0
KMNS 101615Z 22012KT 37/08 A3008 RMK A01 T03690080  RH  018%=      5-min Rain = 0
KMNS 101620Z 23011G16KT 37/07 A3008 RMK A01 T03730069  RH  016%=      5-min Rain = 0
KMNS 101625Z 22015G20KT 37/05 A3008 RMK A01 T03730049  RH  014%=      5-min Rain = 0
KMNS 101630Z 22014G20KT 38/05 A3008 RMK A01 T03750049  RH  014%=      5-min Rain = 0
KMNS 101635Z 22016G21KT 38/04 A3007 RMK A01 T03780042  RH  013%=      5-min Rain = 0
KMNS 101640Z 22014KT 38/04 A3007 RMK A01 T03800038  RH  012%=      5-min Rain = 0
KMNS 101645Z 22014G21KT 38/04 A3007 RMK A01 T03810043  RH  013%=      5-min Rain = 0
KMNS 101650Z 23014G19KT 38/05 A3007 RMK A01 T03830045  RH  013%=      5-min Rain = 0
KMNS 101655Z 22014KT 39/04 A3007 RMK A01 T03850035  RH  012%=      5-min Rain = 0
KMNS 101700Z 22014KT 39/03 A3007 RMK A01 T03880033  RH  011%=      5-min Rain = 0
KMNS 101705Z 22013G18KT 39/04 A3007 RMK A01 T03880036  RH  012%=      5-min Rain = 0
KMNS 101710Z 21012G18KT 39/04 A3007 RMK A01 T03920039  RH  012%=      5-min Rain = 0
KMNS 101715Z 21013KT 40/04 A3007 RMK A01 T03960038  RH  011%=      5-min Rain = 0
KMNS 101720Z 20014G21KT 39/03 A3007 RMK A01 T03940027  RH  011%=      5-min Rain = 0
KMNS 101725Z 20015KT 39/03 A3007 RMK A01 T03930027  RH  011%=      5-min Rain = 0
KMNS 101730Z 22013KT 39/02 A3007 RMK A01 T03940020  RH  010%=      5-min Rain = 0
KMNS 101735Z 23013G18KT 40/03 A3007 RMK A01 T03950029  RH  011%=      5-min Rain = 0
KMNS 101740Z 23012G20KT 40/03 A3007 RMK A01 T03990032  RH  011%=      5-min Rain = 0
KMNS 101745Z 20014G19KT 40/03 A3007 RMK A01 T04000030  RH  010%=      5-min Rain = 0
KMNS 101750Z 22012G17KT 40/03 A3007 RMK A01 T04010029  RH  010%=      5-min Rain = 0
KMNS 101755Z 23009G14KT 40/03 A3007 RMK A01 T04010027  RH  010%=      5-min Rain = 0
KMNS 101800Z 21010G15KT 40/03 A3007 RMK A01 T04010026  RH  010%=      5-min Rain = 0
KMNS 101805Z 23012G18KT 41/02 A3007 RMK A01 T04050019  RH  009%=      5-min Rain = 0
KMNS 101810Z 19011G16KT 41/02 A3007 RMK A01 T04110019  RH  009%=      5-min Rain = 0
KMNS 101815Z 19010G15KT 41/02 A3007 RMK A01 T04060018  RH  009%=      5-min Rain = 0
KMNS 101820Z 21015G21KT 41/02 A3006 RMK A01 T04110016  RH  009%=      5-min Rain = 0
KMNS 101825Z 21009G15KT 40/01 A3006 RMK A01 T04040011  RH  009%=      5-min Rain = 0
KMNS 101830Z 21009G17KT 41/01 A3006 RMK A01 T04070011  RH  009%=      5-min Rain = 0
KMNS 101835Z 19009G16KT 41/01 A3006 RMK A01 T04100013  RH  009%=      5-min Rain = 0
KMNS 101840Z 19012G21KT 41/01 A3006 RMK A01 T04130012  RH  009%=      5-min Rain = 0
KMNS 101845Z 21009G14KT 41/01 A3006 RMK A01 T04090008  RH  008%=      5-min Rain = 0
KMNS 101850Z 24008KT 41/01 A3006 RMK A01 T04050007  RH  009%=      5-min Rain = 0
KMNS 101855Z 21009G16KT 40/00 A3006 RMK A01 T04010003  RH  009%=      5-min Rain = 0
KMNS 101900Z 18009G26KT 39/M00 A3006 RMK A01 T03941002  RH  009%=      5-min Rain = 0
KMNS 101905Z 25007G12KT 40/01 A3006 RMK A01 T03980005  RH  009%=      5-min Rain = 0
KMNS 101910Z 23007G12KT 40/00 A3006 RMK A01 T04020002  RH  008%=      5-min Rain = 0
KMNS 101915Z 21009KT 41/M00 A3006 RMK A01 T04081001  RH  008%=      5-min Rain = 0
KMNS 101920Z 20010KT 40/M01 A3006 RMK A01 T04011007  RH  008%=      5-min Rain = 0
KMNS 101925Z 19008G16KT 40/M01 A3006 RMK A01 T03981006  RH  008%=      5-min Rain = 0
KMNS 101930Z 17009G14KT 40/M01 A3005 RMK A01 T03991006  RH  008%=      5-min Rain = 0
KMNS 101935Z 20011G17KT 40/M01 A3006 RMK A01 T03991009  RH  008%=      5-min Rain = 0
KMNS 101940Z 17008G14KT 40/M01 A3006 RMK A01 T03951013  RH  008%=      5-min Rain = 0
KMNS 101945Z 17008G14KT 40/M01 A3006 RMK A01 T03951010  RH  008%=      5-min Rain = 0
KMNS 101950Z 17011KT 39/M01 A3005 RMK A01 T03931011  RH  008%=      5-min Rain = 0
KMNS 101955Z 17011G18KT 39/M01 A3005 RMK A01 T03921014  RH  008%=      5-min Rain = 0
KMNS 102000Z 17012KT 39/M01 A3005 RMK A01 T03911013  RH  008%=      5-min Rain = 0
KMNS 102005Z 17010G15KT 39/M01 A3005 RMK A01 T03921011  RH  008%=      5-min Rain = 0
KMNS 102010Z 15011G17KT 39/M01 A3005 RMK A01 T03911014  RH  008%=      5-min Rain = 0
KMNS 102015Z 16012KT 39/M01 A3005 RMK A01 T03891009  RH  008%=      5-min Rain = 0
KMNS 102020Z 17010KT 40/M00 A3005 RMK A01 T03971004  RH  008%=      5-min Rain = 0
KMNS 102025Z 16010KT 40/M00 A3005 RMK A01 T04041003  RH  008%=      5-min Rain = 0
KMNS 102030Z 15011G17KT 41/M01 A3005 RMK A01 T04091006  RH  008%=      5-min Rain = 0
KMNS 102035Z 15011G16KT 40/M01 A3005 RMK A01 T04031007  RH  008%=      5-min Rain = 0
KMNS 102040Z 17012G18KT 40/M00 A3005 RMK A01 T03951002  RH  008%=      5-min Rain = 0
KMNS 102045Z 16010KT 41/M00 A3005 RMK A01 T04101002  RH  008%=      5-min Rain = 0
KMNS 102050Z 16011G17KT 41/M00 A3005 RMK A01 T04121001  RH  008%=      5-min Rain = 0
KMNS 102055Z 17011G19KT 41/01 A3005 RMK A01 T04140009  RH  008%=      5-min Rain = 0
KMNS 102100Z 15013G20KT 41/02 A3004 RMK A01 T04120015  RH  009%=      5-min Rain = 0
KMNS 102105Z 15014G19KT 41/03 A3004 RMK A01 T04130030  RH  010%=      5-min Rain = 0
KMNS 102110Z 16016G22KT 41/03 A3004 RMK A01 T04130032  RH  010%=      5-min Rain = 0
KMNS 102115Z 15016G21KT 40/04 A3004 RMK A01 T04030036  RH  011%=      5-min Rain = 0
KMNS 102120Z 15015G20KT 41/04 A3004 RMK A01 T04070036  RH  011%=      5-min Rain = 0
KMNS 102125Z 17013G19KT 40/04 A3004 RMK A01 T03960035  RH  011%=      5-min Rain = 0
KMNS 102130Z 16016G23KT 39/03 A3004 RMK A01 T03910033  RH  011%=      5-min Rain = 0
KMNS 102135Z 16016G23KT 40/03 A3004 RMK A01 T03970032  RH  011%=      5-min Rain = 0
KMNS 102140Z 17014G20KT 40/03 A3004 RMK A01 T03970033  RH  011%=      5-min Rain = 0
KMNS 102145Z 16016KT 40/04 A3004 RMK A01 T04030037  RH  011%=      5-min Rain = 0
KMNS 102150Z 16015G22KT 41/04 A3003 RMK A01 T04060041  RH  011%=      5-min Rain = 0
KMNS 102155Z 16014G21KT 41/04 A3004 RMK A01 T04060043  RH  011%=      5-min Rain = 0
KMNS 102200Z 15016G21KT 41/04 A3003 RMK A01 T04070040  RH  011%=      5-min Rain = 0
KMNS 102205Z 16014KT 41/04 A3003 RMK A01 T04070039  RH  011%=      5-min Rain = 0
KMNS 102210Z 17013G20KT 41/04 A3003 RMK A01 T04060041  RH  011%=      5-min Rain = 0
KMNS 102215Z 16016G24KT 40/04 A3003 RMK A01 T03990039  RH  011%=      5-min Rain = 0
KMNS 102220Z 17015G20KT 40/04 A3003 RMK A01 T04030038  RH  011%=      5-min Rain = 0
KMNS 102225Z 17012KT 40/04 A3003 RMK A01 T03980036  RH  011%=      5-min Rain = 0
KMNS 102230Z 18015G22KT 40/04 A3003 RMK A01 T04000041  RH  011%=      5-min Rain = 0
KMNS 102235Z 17012G19KT 40/04 A3003 RMK A01 T04040043  RH  011%=      5-min Rain = 0
KMNS 102240Z 18012KT 41/04 A3003 RMK A01 T04080042  RH  011%=      5-min Rain = 0
KMNS 102245Z 16012G19KT 40/04 A3003 RMK A01 T04040044  RH  011%=      5-min Rain = 0
KMNS 102250Z 16015G21KT 40/05 A3003 RMK A01 T04020050  RH  012%=      5-min Rain = 0
KMNS 102255Z 16014G19KT 40/05 A3003 RMK A01 T04000047  RH  012%=      5-min Rain = 0
KMNS 102300Z 15013G20KT 40/05 A3003 RMK A01 T04040048  RH  012%=      5-min Rain = 0
KMNS 102305Z 16015G21KT 40/05 A3003 RMK A01 T04010048  RH  012%=      5-min Rain = 0
KMNS 102310Z 16013G19KT 40/05 A3003 RMK A01 T04020049  RH  012%=      5-min Rain = 0
KMNS 102315Z 15014G21KT 40/05 A3002 RMK A01 T04030053  RH  012%=      5-min Rain = 0
KMNS 102320Z 16016G21KT 40/05 A3002 RMK A01 T04010053  RH  012%=      5-min Rain = 0
KMNS 102325Z 15018G25KT 40/06 A3002 RMK A01 T03970055  RH  013%=      5-min Rain = 0
KMNS 102330Z 14017G23KT 40/05 A3002 RMK A01 T03960054  RH  013%=      5-min Rain = 0
KMNS 102335Z 16017G23KT 40/05 A3002 RMK A01 T03960054  RH  013%=      5-min Rain = 0
KMNS 102340Z 15016G23KT 40/06 A3002 RMK A01 T03960056  RH  013%=      5-min Rain = 0
KMNS 102345Z 16016KT 39/05 A3002 RMK A01 T03930053  RH  013%=      5-min Rain = 0
KMNS 102350Z 16015G22KT 39/06 A3002 RMK A01 T03920056  RH  013%=      5-min Rain = 0
KMNS 102355Z 16013G19KT 39/06 A3002 RMK A01 T03920058  RH  013%=      5-min Rain = 0
KMNS 110000Z 16018G29KT 39/06 A3002 RMK A01 T03910057  RH  013%=      5-min Rain = 0
KMNS 110005Z 16015G22KT 39/06 A3002 RMK A01 T03900057  RH  013%=      5-min Rain = 0
KMNS 110010Z 17015G23KT 39/06 A3002 RMK A01 T03890057  RH  013%=      5-min Rain = 0
KMNS 110015Z 15016G23KT 39/06 A3002 RMK A01 T03880060  RH  014%=      5-min Rain = 0
KMNS 110020Z 16016G21KT 39/06 A3002 RMK A01 T03860057  RH  014%=      5-min Rain = 0
KMNS 110025Z 16014G22KT 39/06 A3002 RMK A01 T03850057  RH  014%=      5-min Rain = 0
KMNS 110030Z 16017G24KT 38/06 A3002 RMK A01 T03830057  RH  014%=      5-min Rain = 0
KMNS 110035Z 15019G25KT 38/06 A3002 RMK A01 T03780056  RH  014%=      5-min Rain = 0
KMNS 110040Z 15016G21KT 38/06 A3002 RMK A01 T03780058  RH  014%=      5-min Rain = 0
KMNS 110045Z 15015G21KT 38/06 A3003 RMK A01 T03790060  RH  015%=      5-min Rain = 0
KMNS 110050Z 15015G20KT 38/06 A3003 RMK A01 T03780060  RH  015%=      5-min Rain = 0
KMNS 110055Z 15016G21KT 38/06 A3003 RMK A01 T03770060  RH  015%=      5-min Rain = 0
KMNS 110100Z 15016G21KT 38/06 A3003 RMK A01 T03750062  RH  015%=      5-min Rain = 0
KMNS 110105Z 15018KT 37/06 A3003 RMK A01 T03730064  RH  015%=      5-min Rain = 0
KMNS 110110Z 15016G21KT 37/07 A3003 RMK A01 T03710069  RH  016%=      5-min Rain = 0
KMNS 110115Z 15015KT 37/07 A3003 RMK A01 T03690071  RH  017%=      5-min Rain = 0
KMNS 110120Z 15015KT 37/07 A3003 RMK A01 T03690068  RH  016%=      5-min Rain = 0
KMNS 110125Z 15017G22KT 37/07 A3003 RMK A01 T03660073  RH  017%=      5-min Rain = 0
KMNS 110130Z 15016G21KT 36/07 A3003 RMK A01 T03640072  RH  017%=      5-min Rain = 0
KMNS 110135Z 15016G21KT 36/07 A3003 RMK A01 T03620071  RH  017%=      5-min Rain = 0
KMNS 110140Z 15014G19KT 36/07 A3003 RMK A01 T03600072  RH  018%=      5-min Rain = 0
KMNS 110145Z 15014KT 36/07 A3003 RMK A01 T03560074  RH  018%=      5-min Rain = 0
KMNS 110150Z 15014KT 36/08 A3003 RMK A01 T03550075  RH  018%=      5-min Rain = 0
KMNS 110155Z 15013KT 35/08 A3003 RMK A01 T03520077  RH  019%=      5-min Rain = 0
KMNS 110200Z 15013G18KT 35/08 A3004 RMK A01 T03500076  RH  019%=      5-min Rain = 0
KMNS 110205Z 15013G19KT 35/08 A3004 RMK A01 T03490075  RH  019%=      5-min Rain = 0
KMNS 110210Z 15013KT 35/08 A3004 RMK A01 T03470077  RH  019%=      5-min Rain = 0
KMNS 110215Z 15013KT 34/08 A3004 RMK A01 T03440080  RH  020%=      5-min Rain = 0
KMNS 110220Z 15013KT 34/08 A3004 RMK A01 T03430083  RH  021%=      5-min Rain = 0
KMNS 110225Z 15013KT 34/08 A3004 RMK A01 T03410084  RH  021%=      5-min Rain = 0
KMNS 110230Z 15012G17KT 34/09 A3004 RMK A01 T03380086  RH  022%=      5-min Rain = 0
KMNS 110235Z 15011KT 34/09 A3004 RMK A01 T03360086  RH  022%=      5-min Rain = 0
KMNS 110240Z 15010KT 33/09 A3005 RMK A01 T03330087  RH  023%=      5-min Rain = 0
KMNS 110245Z 15010KT 33/09 A3005 RMK A01 T03310087  RH  023%=      5-min Rain = 0
KMNS 110250Z 15011KT 33/09 A3005 RMK A01 T03300088  RH  023%=      5-min Rain = 0
KMNS 110255Z 14009KT 33/09 A3005 RMK A01 T03280089  RH  024%=      5-min Rain = 0
KMNS 110300Z 15009KT 33/09 A3005 RMK A01 T03260090  RH  024%=      5-min Rain = 0
KMNS 110305Z 15011KT 33/09 A3005 RMK A01 T03250092  RH  024%=      5-min Rain = 0
KMNS 110310Z 15011KT 33/09 A3005 RMK A01 T03250093  RH  025%=      5-min Rain = 0
KMNS 110315Z 15011KT 32/10 A3005 RMK A01 T03240095  RH  025%=      5-min Rain = 0
KMNS 110320Z 15012KT 32/10 A3005 RMK A01 T03230096  RH  025%=      5-min Rain = 0
KMNS 110325Z 15013KT 32/10 A3006 RMK A01 T03230097  RH  026%=      5-min Rain = 0
KMNS 110330Z 15012KT 32/10 A3006 RMK A01 T03230097  RH  026%=      5-min Rain = 0
KMNS 110335Z 15012G17KT 32/10 A3006 RMK A01 T03220097  RH  026%=      5-min Rain = 0
KMNS 110340Z 15012KT 32/10 A3006 RMK A01 T03200097  RH  026%=      5-min Rain = 0
KMNS 110345Z 15011G16KT 32/10 A3006 RMK A01 T03190096  RH  026%=      5-min Rain = 0
KMNS 110350Z 15011G16KT 32/10 A3006 RMK A01 T03180096  RH  026%=      5-min Rain = 0
KMNS 110355Z 15011KT 32/10 A3007 RMK A01 T03170095  RH  026%=      5-min Rain = 0
KMNS 110400Z 15011KT 32/10 A3007 RMK A01 T03150095  RH  026%=      5-min Rain = 0
KMNS 110405Z 15012KT 31/10 A3007 RMK A01 T03140095  RH  027%=      5-min Rain = 0
KMNS 110410Z 15013KT 31/10 A3007 RMK A01 T03130095  RH  027%=      5-min Rain = 0
KMNS 110415Z 15012KT 31/10 A3007 RMK A01 T03120095  RH  027%=      5-min Rain = 0
KMNS 110420Z 15013KT 31/10 A3007 RMK A01 T03100096  RH  027%=      5-min Rain = 0
KMNS 110425Z 15013KT 31/10 A3007 RMK A01 T03100098  RH  028%=      5-min Rain = 0
KMNS 110430Z 15014G19KT 31/10 A3007 RMK A01 T03100103  RH  029%=      5-min Rain = 0
KMNS 110435Z 15014KT 31/11 A3007 RMK A01 T03090107  RH  030%=      5-min Rain = 0
KMNS 110440Z 15013KT 31/11 A3007 RMK A01 T03070110  RH  031%=      5-min Rain = 0
KMNS 110445Z 15012G17KT 31/11 A3007 RMK A01 T03060112  RH  031%=      5-min Rain = 0
KMNS 110450Z 15013G18KT 31/12 A3007 RMK A01 T03050115  RH  032%=      5-min Rain = 0
KMNS 110455Z 16013KT 30/12 A3007 RMK A01 T03040118  RH  033%=      5-min Rain = 0

Page generated in 0.0314 seconds.